sensor_id;sensor_type;location;lat;lon;timestamp;pressure;altitude;pressure_sealevel;temperature;humidity
49827;BME280;35715;51.570;6.036;2024-02-28T00:01:36;101903.94;;;3.23;100.00
49827;BME280;35715;51.570;6.036;2024-02-28T00:04:01;101910.66;;;3.22;100.00
49827;BME280;35715;51.570;6.036;2024-02-28T00:06:27;101910.84;;;3.24;100.00
49827;BME280;35715;51.570;6.036;2024-02-28T00:08:52;101904.13;;;3.24;100.00
49827;BME280;35715;51.570;6.036;2024-02-28T00:11:20;101894.47;;;3.22;100.00
49827;BME280;35715;51.570;6.036;2024-02-28T00:13:45;101890.66;;;3.18;100.00
49827;BME280;35715;51.570;6.036;2024-02-28T00:16:10;101897.22;;;3.09;100.00
49827;BME280;35715;51.570;6.036;2024-02-28T00:18:36;101906.63;;;2.94;100.00
49827;BME280;35715;51.570;6.036;2024-02-28T00:21:02;101900.22;;;2.90;100.00
49827;BME280;35715;51.570;6.036;2024-02-28T00:23:29;101895.66;;;2.95;100.00
49827;BME280;35715;51.570;6.036;2024-02-28T00:25:54;101897.50;;;2.96;100.00
49827;BME280;35715;51.570;6.036;2024-02-28T00:28:19;101898.78;;;2.92;100.00
49827;BME280;35715;51.570;6.036;2024-02-28T00:30:45;101896.97;;;2.91;100.00
49827;BME280;35715;51.570;6.036;2024-02-28T00:33:10;101891.13;;;2.92;100.00
49827;BME280;35715;51.570;6.036;2024-02-28T00:35:35;101893.13;;;2.88;100.00
49827;BME280;35715;51.570;6.036;2024-02-28T00:38:01;101891.69;;;2.90;100.00
49827;BME280;35715;51.570;6.036;2024-02-28T00:40:26;101887.13;;;2.87;100.00
49827;BME280;35715;51.570;6.036;2024-02-28T00:42:53;101885.47;;;2.88;100.00
49827;BME280;35715;51.570;6.036;2024-02-28T00:45:19;101892.25;;;2.80;100.00
49827;BME280;35715;51.570;6.036;2024-02-28T00:47:44;101887.16;;;2.80;100.00
49827;BME280;35715;51.570;6.036;2024-02-28T00:50:12;101891.19;;;2.78;100.00
49827;BME280;35715;51.570;6.036;2024-02-28T00:52:37;101887.22;;;2.65;100.00
49827;BME280;35715;51.570;6.036;2024-02-28T00:55:03;101881.47;;;2.30;100.00
49827;BME280;35715;51.570;6.036;2024-02-28T00:57:30;101888.41;;;2.24;100.00
49827;BME280;35715;51.570;6.036;2024-02-28T00:59:56;101888.19;;;2.37;100.00
49827;BME280;35715;51.570;6.036;2024-02-28T01:02:21;101887.28;;;2.44;100.00
49827;BME280;35715;51.570;6.036;2024-02-28T01:04:47;101888.69;;;2.56;100.00
49827;BME280;35715;51.570;6.036;2024-02-28T01:07:12;101887.59;;;2.61;100.00
49827;BME280;35715;51.570;6.036;2024-02-28T01:09:37;101883.59;;;2.63;100.00
49827;BME280;35715;51.570;6.036;2024-02-28T01:12:03;101888.47;;;2.62;100.00
49827;BME280;35715;51.570;6.036;2024-02-28T01:14:29;101888.13;;;2.59;100.00
49827;BME280;35715;51.570;6.036;2024-02-28T01:16:55;101887.41;;;2.53;100.00
49827;BME280;35715;51.570;6.036;2024-02-28T01:19:20;101895.63;;;2.50;100.00
49827;BME280;35715;51.570;6.036;2024-02-28T01:21:58;101888.00;;;2.36;100.00
49827;BME280;35715;51.570;6.036;2024-02-28T01:24:23;101893.47;;;2.17;100.00
49827;BME280;35715;51.570;6.036;2024-02-28T01:26:48;101893.13;;;2.14;100.00
49827;BME280;35715;51.570;6.036;2024-02-28T01:29:14;101881.28;;;2.15;100.00
49827;BME280;35715;51.570;6.036;2024-02-28T01:31:39;101882.59;;;2.18;100.00
49827;BME280;35715;51.570;6.036;2024-02-28T01:34:07;101885.09;;;2.25;100.00
49827;BME280;35715;51.570;6.036;2024-02-28T01:36:33;101891.84;;;2.32;100.00
49827;BME280;35715;51.570;6.036;2024-02-28T01:38:58;101888.53;;;2.33;100.00
49827;BME280;35715;51.570;6.036;2024-02-28T01:41:24;101894.56;;;2.34;100.00
49827;BME280;35715;51.570;6.036;2024-02-28T01:43:49;101890.53;;;2.36;100.00
49827;BME280;35715;51.570;6.036;2024-02-28T01:46:26;101889.09;;;2.38;100.00
49827;BME280;35715;51.570;6.036;2024-02-28T01:48:53;101892.56;;;2.45;100.00
49827;BME280;35715;51.570;6.036;2024-02-28T01:51:21;101887.28;;;2.44;100.00
49827;BME280;35715;51.570;6.036;2024-02-28T01:53:47;101885.09;;;2.40;100.00
49827;BME280;35715;51.570;6.036;2024-02-28T01:56:14;101891.25;;;2.42;100.00
49827;BME280;35715;51.570;6.036;2024-02-28T01:58:43;101891.84;;;2.39;100.00
49827;BME280;35715;51.570;6.036;2024-02-28T02:01:10;101888.19;;;2.37;100.00
49827;BME280;35715;51.570;6.036;2024-02-28T02:03:36;101888.53;;;2.33;100.00
49827;BME280;35715;51.570;6.036;2024-02-28T02:06:03;101893.28;;;2.37;100.00
49827;BME280;35715;51.570;6.036;2024-02-28T02:08:28;101890.91;;;2.46;100.00
49827;BME280;35715;51.570;6.036;2024-02-28T02:10:54;101893.81;;;2.49;100.00
49827;BME280;35715;51.570;6.036;2024-02-28T02:13:19;101890.13;;;2.54;100.00
49827;BME280;35715;51.570;6.036;2024-02-28T02:15:47;101893.78;;;2.56;100.00
49827;BME280;35715;51.570;6.036;2024-02-28T02:18:13;101887.03;;;2.64;100.00
49827;BME280;35715;51.570;6.036;2024-02-28T02:20:43;101881.75;;;2.70;100.00
49827;BME280;35715;51.570;6.036;2024-02-28T02:23:09;101883.53;;;2.78;100.00
49827;BME280;35715;51.570;6.036;2024-02-28T02:25:34;101885.88;;;2.83;100.00
49827;BME280;35715;51.570;6.036;2024-02-28T02:28:08;101899.34;;;2.90;100.00
49827;BME280;35715;51.570;6.036;2024-02-28T02:30:33;101894.94;;;2.96;100.00
49827;BME280;35715;51.570;6.036;2024-02-28T02:32:59;101909.88;;;3.00;100.00
49827;BME280;35715;51.570;6.036;2024-02-28T02:35:24;101906.72;;;3.02;100.00
49827;BME280;35715;51.570;6.036;2024-02-28T02:37:49;101908.91;;;3.07;100.00
49827;BME280;35715;51.570;6.036;2024-02-28T02:40:15;101909.09;;;3.08;100.00
49827;BME280;35715;51.570;6.036;2024-02-28T02:42:41;101911.81;;;3.10;100.00
49827;BME280;35715;51.570;6.036;2024-02-28T02:45:06;101909.09;;;3.08;100.00
49827;BME280;35715;51.570;6.036;2024-02-28T02:47:32;101909.97;;;3.09;100.00
49827;BME280;35715;51.570;6.036;2024-02-28T02:49:57;101901.09;;;3.05;100.00
49827;BME280;35715;51.570;6.036;2024-02-28T02:52:22;101901.81;;;3.04;100.00
49827;BME280;35715;51.570;6.036;2024-02-28T02:54:50;101902.56;;;3.03;100.00
49827;BME280;35715;51.570;6.036;2024-02-28T02:57:16;101903.47;;;3.04;100.00
49827;BME280;35715;51.570;6.036;2024-02-28T02:59:41;101913.31;;;3.00;100.00
49827;BME280;35715;51.570;6.036;2024-02-28T03:02:06;101913.69;;;2.96;100.00
49827;BME280;35715;51.570;6.036;2024-02-28T03:04:32;101919.91;;;2.91;100.00
49827;BME280;35715;51.570;6.036;2024-02-28T03:06:57;101917.00;;;2.88;100.00
49827;BME280;35715;51.570;6.036;2024-02-28T03:09:22;101916.28;;;2.82;100.00
49827;BME280;35715;51.570;6.036;2024-02-28T03:11:48;101920.09;;;2.78;100.00
49827;BME280;35715;51.570;6.036;2024-02-28T03:14:15;101919.22;;;2.78;100.00
49827;BME280;35715;51.570;6.036;2024-02-28T03:16:43;101913.59;;;2.73;100.00
49827;BME280;35715;51.570;6.036;2024-02-28T03:19:10;101914.66;;;2.75;100.00
49827;BME280;35715;51.570;6.036;2024-02-28T03:21:42;101918.84;;;2.75;100.00
49827;BME280;35715;51.570;6.036;2024-02-28T03:24:08;101915.94;;;2.72;100.00
49827;BME280;35715;51.570;6.036;2024-02-28T03:26:33;101911.41;;;2.69;100.00
49827;BME280;35715;51.570;6.036;2024-02-28T03:28:59;101913.78;;;2.67;100.00
49827;BME280;35715;51.570;6.036;2024-02-28T03:31:25;101924.34;;;2.63;100.00
49827;BME280;35715;51.570;6.036;2024-02-28T03:33:50;101919.22;;;2.71;100.00
49827;BME280;35715;51.570;6.036;2024-02-28T03:36:16;101921.59;;;2.69;100.00
49827;BME280;35715;51.570;6.036;2024-02-28T03:38:41;101926.50;;;2.67;100.00
49827;BME280;35715;51.570;6.036;2024-02-28T03:41:07;101917.44;;;2.70;100.00
49827;BME280;35715;51.570;6.036;2024-02-28T03:43:32;101928.50;;;2.70;100.00
49827;BME280;35715;51.570;6.036;2024-02-28T03:45:57;101928.50;;;2.70;100.00
49827;BME280;35715;51.570;6.036;2024-02-28T03:48:23;101923.41;;;2.70;100.00
49827;BME280;35715;51.570;6.036;2024-02-28T03:50:50;101924.16;;;2.62;100.00
49827;BME280;35715;51.570;6.036;2024-02-28T03:53:16;101921.63;;;2.55;100.00
49827;BME280;35715;51.570;6.036;2024-02-28T03:55:41;101920.34;;;2.51;100.00
49827;BME280;35715;51.570;6.036;2024-02-28T03:58:09;101920.00;;;2.48;100.00
49827;BME280;35715;51.570;6.036;2024-02-28T04:00:34;101919.09;;;2.47;100.00
49827;BME280;35715;51.570;6.036;2024-02-28T04:03:00;101909.84;;;2.41;100.00
49827;BME280;35715;51.570;6.036;2024-02-28T04:05:26;101922.94;;;2.44;100.00
49827;BME280;35715;51.570;6.036;2024-02-28T04:07:51;101922.19;;;2.45;100.00
49827;BME280;35715;51.570;6.036;2024-02-28T04:10:17;101922.19;;;2.45;100.00
49827;BME280;35715;51.570;6.036;2024-02-28T04:12:43;101911.63;;;2.42;100.00
49827;BME280;35715;51.570;6.036;2024-02-28T04:15:11;101913.47;;;2.43;100.00
49827;BME280;35715;51.570;6.036;2024-02-28T04:17:39;101912.03;;;2.30;100.00
49827;BME280;35715;51.570;6.036;2024-02-28T04:20:12;101917.84;;;2.29;100.00
49827;BME280;35715;51.570;6.036;2024-02-28T04:22:38;101909.31;;;2.29;100.00
49827;BME280;35715;51.570;6.036;2024-02-28T04:25:08;101915.28;;;2.37;100.00
49827;BME280;35715;51.570;6.036;2024-02-28T04:27:34;101918.91;;;2.39;100.00
49827;BME280;35715;51.570;6.036;2024-02-28T04:30:00;101916.56;;;2.40;100.00
49827;BME280;35715;51.570;6.036;2024-02-28T04:32:25;101919.66;;;2.38;100.00
49827;BME280;35715;51.570;6.036;2024-02-28T04:34:50;101917.47;;;2.41;100.00
49827;BME280;35715;51.570;6.036;2024-02-28T04:37:16;101920.94;;;2.41;100.00
49827;BME280;35715;51.570;6.036;2024-02-28T04:39:42;101922.94;;;2.44;100.00
49827;BME280;35715;51.570;6.036;2024-02-28T04:42:07;101931.13;;;2.41;100.00
49827;BME280;35715;51.570;6.036;2024-02-28T04:44:33;101940.00;;;2.45;100.00
49827;BME280;35715;51.570;6.036;2024-02-28T04:46:58;101942.75;;;2.46;100.00
49827;BME280;35715;51.570;6.036;2024-02-28T04:49:23;101949.47;;;2.46;100.00
49827;BME280;35715;51.570;6.036;2024-02-28T04:51:49;101946.94;;;2.39;100.00
49827;BME280;35715;51.570;6.036;2024-02-28T04:54:14;101942.19;;;2.35;100.00
49827;BME280;35715;51.570;6.036;2024-02-28T04:56:43;101954.56;;;2.39;100.00
49827;BME280;35715;51.570;6.036;2024-02-28T04:59:10;101948.41;;;2.37;100.00
49827;BME280;35715;51.570;6.036;2024-02-28T05:01:36;101948.94;;;2.34;100.00
49827;BME280;35715;51.570;6.036;2024-02-28T05:04:07;101949.47;;;2.31;100.00
49827;BME280;35715;51.570;6.036;2024-02-28T05:06:33;101949.88;;;2.27;100.00
49827;BME280;35715;51.570;6.036;2024-02-28T05:08:59;101949.13;;;2.28;100.00
49827;BME280;35715;51.570;6.036;2024-02-28T05:11:24;101963.31;;;2.34;100.00
49827;BME280;35715;51.570;6.036;2024-02-28T05:13:50;101961.50;;;2.33;100.00
49827;BME280;35715;51.570;6.036;2024-02-28T05:16:16;101972.03;;;2.28;100.00
49827;BME280;35715;51.570;6.036;2024-02-28T05:18:42;101969.69;;;2.23;100.00
49827;BME280;35715;51.570;6.036;2024-02-28T05:21:09;101966.41;;;2.24;100.00
49827;BME280;35715;51.570;6.036;2024-02-28T05:23:37;101973.66;;;2.21;100.00
49827;BME280;35715;51.570;6.036;2024-02-28T05:26:02;101966.22;;;2.22;100.00
49827;BME280;35715;51.570;6.036;2024-02-28T05:28:33;101970.94;;;2.19;100.00
49827;BME280;35715;51.570;6.036;2024-02-28T05:31:22;101968.22;;;2.25;100.00
49827;BME280;35715;51.570;6.036;2024-02-28T05:33:46;101968.94;;;2.24;100.00
49827;BME280;35715;51.570;6.036;2024-02-28T05:36:11;101969.31;;;2.27;100.00
49827;BME280;35715;51.570;6.036;2024-02-28T05:38:37;101977.50;;;2.24;100.00
49827;BME280;35715;51.570;6.036;2024-02-28T05:41:02;101975.34;;;2.27;100.00
49827;BME280;35715;51.570;6.036;2024-02-28T05:43:28;101980.06;;;2.24;100.00
49827;BME280;35715;51.570;6.036;2024-02-28T05:45:53;101980.41;;;2.20;100.00
49827;BME280;35715;51.570;6.036;2024-02-28T05:48:19;101976.59;;;2.17;100.00
49827;BME280;35715;51.570;6.036;2024-02-28T05:50:45;101967.84;;;2.07;100.00
49827;BME280;35715;51.570;6.036;2024-02-28T05:53:10;101973.50;;;2.12;100.00
49827;BME280;35715;51.570;6.036;2024-02-28T05:55:36;101970.59;;;2.16;100.00
49827;BME280;35715;51.570;6.036;2024-02-28T05:58:01;101981.13;;;2.19;100.00
49827;BME280;35715;51.570;6.036;2024-02-28T06:00:27;101989.13;;;2.22;100.00
49827;BME280;35715;51.570;6.036;2024-02-28T06:02:53;101987.88;;;2.19;100.00
49827;BME280;35715;51.570;6.036;2024-02-28T06:05:18;101984.06;;;2.15;100.00
49827;BME280;35715;51.570;6.036;2024-02-28T06:07:44;101998.22;;;2.20;100.00
49827;BME280;35715;51.570;6.036;2024-02-28T06:10:09;101996.03;;;2.16;100.00
49827;BME280;35715;51.570;6.036;2024-02-28T06:12:35;101995.31;;;2.17;100.00
49827;BME280;35715;51.570;6.036;2024-02-28T06:15:01;101994.59;;;2.18;100.00
49827;BME280;35715;51.570;6.036;2024-02-28T06:17:26;101988.94;;;2.21;100.00
49827;BME280;35715;51.570;6.036;2024-02-28T06:19:51;101999.50;;;2.24;100.00
49827;BME280;35715;51.570;6.036;2024-02-28T06:22:18;102012.97;;;2.16;100.00
49827;BME280;35715;51.570;6.036;2024-02-28T06:24:46;102010.59;;;2.10;100.00
49827;BME280;35715;51.570;6.036;2024-02-28T06:27:12;102018.06;;;2.16;100.00
49827;BME280;35715;51.570;6.036;2024-02-28T06:29:39;102017.88;;;2.21;100.00
49827;BME280;35715;51.570;6.036;2024-02-28T06:32:05;102025.34;;;2.20;100.00
49827;BME280;35715;51.570;6.036;2024-02-28T06:34:33;102026.59;;;2.16;100.00
49827;BME280;35715;51.570;6.036;2024-02-28T06:37:12;102020.78;;;2.17;100.00
49827;BME280;35715;51.570;6.036;2024-02-28T06:39:38;102028.94;;;2.15;100.00
49827;BME280;35715;51.570;6.036;2024-02-28T06:42:03;102021.69;;;2.18;100.00
49827;BME280;35715;51.570;6.036;2024-02-28T06:44:29;102027.34;;;2.15;100.00
49827;BME280;35715;51.570;6.036;2024-02-28T06:46:54;102026.41;;;2.15;100.00
49827;BME280;35715;51.570;6.036;2024-02-28T06:49:19;102032.63;;;2.17;100.00
49827;BME280;35715;51.570;6.036;2024-02-28T06:51:44;102032.97;;;2.20;100.00
49827;BME280;35715;51.570;6.036;2024-02-28T06:54:10;102033.69;;;2.11;100.00
49827;BME280;35715;51.570;6.036;2024-02-28T06:56:36;102023.50;;;2.11;100.00
49827;BME280;35715;51.570;6.036;2024-02-28T06:59:02;102043.34;;;2.21;100.00
49827;BME280;35715;51.570;6.036;2024-02-28T07:01:29;102029.16;;;2.23;100.00
49827;BME280;35715;51.570;6.036;2024-02-28T07:03:54;102037.34;;;2.28;100.00
49827;BME280;35715;51.570;6.036;2024-02-28T07:06:19;102041.16;;;2.39;100.00
49827;BME280;35715;51.570;6.036;2024-02-28T07:08:45;102046.47;;;2.47;100.00
49827;BME280;35715;51.570;6.036;2024-02-28T07:11:14;102043.72;;;2.46;100.00
49827;BME280;35715;51.570;6.036;2024-02-28T07:13:40;102052.09;;;2.52;100.00
49827;BME280;35715;51.570;6.036;2024-02-28T07:16:05;102055.00;;;2.55;100.00
49827;BME280;35715;51.570;6.036;2024-02-28T07:18:31;102058.09;;;2.60;100.00
49827;BME280;35715;51.570;6.036;2024-02-28T07:20:57;102064.13;;;2.53;100.00
49827;BME280;35715;51.570;6.036;2024-02-28T07:23:22;102064.66;;;2.51;100.00
49827;BME280;35715;51.570;6.036;2024-02-28T07:25:48;102057.56;;;2.55;100.00
49827;BME280;35715;51.570;6.036;2024-02-28T07:28:13;102072.31;;;2.58;100.00
49827;BME280;35715;51.570;6.036;2024-02-28T07:30:38;102076.13;;;2.61;100.00
49827;BME280;35715;51.570;6.036;2024-02-28T07:33:05;102065.94;;;2.69;100.00
49827;BME280;35715;51.570;6.036;2024-02-28T07:35:31;102080.31;;;2.68;100.00
49827;BME280;35715;51.570;6.036;2024-02-28T07:37:56;102084.31;;;2.73;100.00
49827;BME280;35715;51.570;6.036;2024-02-28T07:40:22;102079.94;;;2.79;100.00
49827;BME280;35715;51.570;6.036;2024-02-28T07:42:47;102069.03;;;2.80;100.00
49827;BME280;35715;51.570;6.036;2024-02-28T07:45:12;102077.75;;;2.90;100.00
49827;BME280;35715;51.570;6.036;2024-02-28T07:47:38;102080.50;;;2.91;100.00
49827;BME280;35715;51.570;6.036;2024-02-28T07:50:06;102079.56;;;2.98;100.00
49827;BME280;35715;51.570;6.036;2024-02-28T07:52:31;102092.84;;;3.02;100.00
49827;BME280;35715;51.570;6.036;2024-02-28T07:55:00;102096.69;;;3.06;100.00
49827;BME280;35715;51.570;6.036;2024-02-28T07:57:25;102091.94;;;3.16;100.00
49827;BME280;35715;51.570;6.036;2024-02-28T07:59:51;102095.41;;;3.24;100.00
49827;BME280;35715;51.570;6.036;2024-02-28T08:02:26;102090.25;;;3.31;100.00
49827;BME280;35715;51.570;6.036;2024-02-28T08:04:58;102090.06;;;3.37;100.00
49827;BME280;35715;51.570;6.036;2024-02-28T08:07:23;102093.31;;;3.43;100.00
49827;BME280;35715;51.570;6.036;2024-02-28T08:09:51;102092.97;;;3.47;100.00
49827;BME280;35715;51.570;6.036;2024-02-28T08:12:16;102100.03;;;3.57;100.00
49827;BME280;35715;51.570;6.036;2024-02-28T08:14:42;102090.88;;;3.66;100.00
49827;BME280;35715;51.570;6.036;2024-02-28T08:17:07;102092.50;;;3.80;100.00
49827;BME280;35715;51.570;6.036;2024-02-28T08:19:32;102094.47;;;3.83;100.00
49827;BME280;35715;51.570;6.036;2024-02-28T08:22:00;102093.72;;;3.91;100.00
49827;BME280;35715;51.570;6.036;2024-02-28T08:24:25;102097.31;;;4.00;100.00
49827;BME280;35715;51.570;6.036;2024-02-28T08:26:51;102101.06;;;4.11;100.00
49827;BME280;35715;51.570;6.036;2024-02-28T08:29:16;102109.44;;;4.17;100.00
49827;BME280;35715;51.570;6.036;2024-02-28T08:31:43;102104.84;;;4.22;100.00
49827;BME280;35715;51.570;6.036;2024-02-28T08:34:09;102093.88;;;4.30;100.00
49827;BME280;35715;51.570;6.036;2024-02-28T08:36:35;102094.72;;;4.38;100.00
49827;BME280;35715;51.570;6.036;2024-02-28T08:39:00;102094.81;;;4.47;100.00
49827;BME280;35715;51.570;6.036;2024-02-28T08:41:26;102102.06;;;4.58;100.00
49827;BME280;35715;51.570;6.036;2024-02-28T08:43:52;102107.34;;;4.59;100.00
49827;BME280;35715;51.570;6.036;2024-02-28T08:46:17;102104.56;;;4.65;100.00
49827;BME280;35715;51.570;6.036;2024-02-28T08:48:42;102106.28;;;4.80;100.00
49827;BME280;35715;51.570;6.036;2024-02-28T08:51:11;102106.63;;;5.00;100.00
49827;BME280;35715;51.570;6.036;2024-02-28T08:53:39;102108.19;;;5.13;100.00
49827;BME280;35715;51.570;6.036;2024-02-28T08:56:05;102106.56;;;5.30;100.00
49827;BME280;35715;51.570;6.036;2024-02-28T08:58:31;102113.50;;;5.47;100.00
49827;BME280;35715;51.570;6.036;2024-02-28T09:00:56;102124.50;;;5.62;100.00
49827;BME280;35715;51.570;6.036;2024-02-28T09:03:23;102121.59;;;5.91;100.00
49827;BME280;35715;51.570;6.036;2024-02-28T09:05:49;102119.13;;;6.15;100.00
49827;BME280;35715;51.570;6.036;2024-02-28T09:08:14;102121.19;;;6.11;100.00
49827;BME280;35715;51.570;6.036;2024-02-28T09:10:39;102118.31;;;6.08;100.00
49827;BME280;35715;51.570;6.036;2024-02-28T09:13:05;102106.47;;;6.17;100.00
49827;BME280;35715;51.570;6.036;2024-02-28T09:15:32;102101.19;;;6.98;100.00
49827;BME280;35715;51.570;6.036;2024-02-28T09:17:57;102105.09;;;8.07;99.47
49827;BME280;35715;51.570;6.036;2024-02-28T09:20:22;102109.66;;;8.90;96.32
49827;BME280;35715;51.570;6.036;2024-02-28T09:22:48;102103.16;;;9.21;92.45
49827;BME280;35715;51.570;6.036;2024-02-28T09:25:13;102103.03;;;9.38;90.79
49827;BME280;35715;51.570;6.036;2024-02-28T09:27:44;102100.31;;;9.37;89.39
49827;BME280;35715;51.570;6.036;2024-02-28T09:30:09;102104.19;;;8.95;89.21
49827;BME280;35715;51.570;6.036;2024-02-28T09:32:42;102100.16;;;8.80;90.54
49827;BME280;35715;51.570;6.036;2024-02-28T09:35:07;102101.59;;;8.50;90.80
49827;BME280;35715;51.570;6.036;2024-02-28T09:37:32;102104.31;;;8.43;91.14
49827;BME280;35715;51.570;6.036;2024-02-28T09:39:58;102102.09;;;8.28;91.24
49827;BME280;35715;51.570;6.036;2024-02-28T09:42:23;102099.47;;;8.55;91.94
49827;BME280;35715;51.570;6.036;2024-02-28T09:44:52;102098.78;;;8.83;91.14
49827;BME280;35715;51.570;6.036;2024-02-28T09:47:17;102097.97;;;8.93;89.08
49827;BME280;35715;51.570;6.036;2024-02-28T09:49:43;102103.34;;;8.77;89.51
49827;BME280;35715;51.570;6.036;2024-02-28T09:52:10;102096.06;;;8.82;90.02
49827;BME280;35715;51.570;6.036;2024-02-28T09:54:36;102095.84;;;9.26;89.32
49827;BME280;35715;51.570;6.036;2024-02-28T09:57:01;102094.50;;;9.67;87.59
49827;BME280;35715;51.570;6.036;2024-02-28T09:59:27;102084.69;;;10.50;86.08
49827;BME280;35715;51.570;6.036;2024-02-28T10:01:56;102086.88;;;11.05;84.89
49827;BME280;35715;51.570;6.036;2024-02-28T10:04:26;102091.00;;;10.82;82.45
49827;BME280;35715;51.570;6.036;2024-02-28T10:06:52;102088.50;;;10.74;83.82
49827;BME280;35715;51.570;6.036;2024-02-28T10:09:18;102088.78;;;10.77;83.28
49827;BME280;35715;51.570;6.036;2024-02-28T10:11:44;102084.88;;;10.61;83.75
49827;BME280;35715;51.570;6.036;2024-02-28T10:14:11;102102.00;;;10.12;83.69
49827;BME280;35715;51.570;6.036;2024-02-28T10:16:37;102107.25;;;9.85;84.29
49827;BME280;35715;51.570;6.036;2024-02-28T10:19:04;102104.63;;;9.93;85.18
49827;BME280;35715;51.570;6.036;2024-02-28T10:21:30;102105.00;;;10.17;84.85
49827;BME280;35715;51.570;6.036;2024-02-28T10:23:58;102107.69;;;9.89;86.18
49827;BME280;35715;51.570;6.036;2024-02-28T10:26:23;102106.16;;;9.72;86.74
49827;BME280;35715;51.570;6.036;2024-02-28T10:28:49;102113.47;;;9.68;87.32
49827;BME280;35715;51.570;6.036;2024-02-28T10:31:17;102113.59;;;9.69;87.81
49827;BME280;35715;51.570;6.036;2024-02-28T10:33:43;102113.09;;;9.73;86.89
49827;BME280;35715;51.570;6.036;2024-02-28T10:36:09;102116.09;;;9.97;86.28
49827;BME280;35715;51.570;6.036;2024-02-28T10:38:34;102110.94;;;10.16;85.91
49827;BME280;35715;51.570;6.036;2024-02-28T10:41:01;102105.38;;;10.70;85.58
49827;BME280;35715;51.570;6.036;2024-02-28T10:43:30;102100.34;;;11.32;83.30
49827;BME280;35715;51.570;6.036;2024-02-28T10:45:57;102097.06;;;12.06;81.43
49827;BME280;35715;51.570;6.036;2024-02-28T10:48:25;102101.72;;;12.00;79.42
49827;BME280;35715;51.570;6.036;2024-02-28T10:50:50;102103.94;;;12.06;78.44
49827;BME280;35715;51.570;6.036;2024-02-28T10:53:30;102114.81;;;11.71;76.97
49827;BME280;35715;51.570;6.036;2024-02-28T10:56:00;102095.91;;;12.13;77.73
49827;BME280;35715;51.570;6.036;2024-02-28T10:58:32;102101.09;;;11.82;76.60
49827;BME280;35715;51.570;6.036;2024-02-28T11:01:00;102090.34;;;12.41;76.53
49827;BME280;35715;51.570;6.036;2024-02-28T11:03:25;102086.72;;;12.49;74.90
49827;BME280;35715;51.570;6.036;2024-02-28T11:05:50;102091.19;;;12.30;73.58
49827;BME280;35715;51.570;6.036;2024-02-28T11:08:24;102089.97;;;12.04;75.11
49827;BME280;35715;51.570;6.036;2024-02-28T11:10:56;102094.03;;;12.33;75.27
49827;BME280;35715;51.570;6.036;2024-02-28T11:13:27;102094.00;;;11.90;74.80
49827;BME280;35715;51.570;6.036;2024-02-28T11:15:53;102099.03;;;11.47;75.26
49827;BME280;35715;51.570;6.036;2024-02-28T11:18:20;102102.00;;;11.11;76.64
49827;BME280;35715;51.570;6.036;2024-02-28T11:20:45;102097.59;;;10.99;77.49
49827;BME280;35715;51.570;6.036;2024-02-28T11:23:17;102099.22;;;10.78;78.10
49827;BME280;35715;51.570;6.036;2024-02-28T11:25:43;102092.25;;;10.77;78.68
49827;BME280;35715;51.570;6.036;2024-02-28T11:28:09;102093.44;;;10.81;79.79
49827;BME280;35715;51.570;6.036;2024-02-28T11:30:34;102088.56;;;11.05;79.96
49827;BME280;35715;51.570;6.036;2024-02-28T11:33:00;102090.09;;;10.92;78.91
49827;BME280;35715;51.570;6.036;2024-02-28T11:35:28;102091.25;;;10.96;79.04
49827;BME280;35715;51.570;6.036;2024-02-28T11:37:55;102077.19;;;11.23;79.89
49827;BME280;35715;51.570;6.036;2024-02-28T11:40:24;102084.31;;;11.57;78.87
49827;BME280;35715;51.570;6.036;2024-02-28T11:42:54;102082.13;;;11.41;76.84
49827;BME280;35715;51.570;6.036;2024-02-28T11:45:19;102084.97;;;11.44;77.91
49827;BME280;35715;51.570;6.036;2024-02-28T11:47:45;102081.59;;;11.55;77.29
49827;BME280;35715;51.570;6.036;2024-02-28T11:50:11;102075.16;;;11.40;76.66
49827;BME280;35715;51.570;6.036;2024-02-28T11:52:36;102072.97;;;11.34;77.30
49827;BME280;35715;51.570;6.036;2024-02-28T11:55:07;102078.88;;;11.12;77.58
49827;BME280;35715;51.570;6.036;2024-02-28T11:57:33;102079.38;;;10.88;78.55
49827;BME280;35715;51.570;6.036;2024-02-28T12:00:07;102066.56;;;10.79;79.27
49827;BME280;35715;51.570;6.036;2024-02-28T12:02:34;102063.97;;;10.79;79.23
49827;BME280;35715;51.570;6.036;2024-02-28T12:05:01;102056.88;;;10.66;79.03
49827;BME280;35715;51.570;6.036;2024-02-28T12:07:37;102057.03;;;10.38;79.43
49827;BME280;35715;51.570;6.036;2024-02-28T12:10:03;102056.97;;;10.28;80.00
49827;BME280;35715;51.570;6.036;2024-02-28T12:12:29;102047.91;;;10.23;81.17
49827;BME280;35715;51.570;6.036;2024-02-28T12:14:58;102051.66;;;10.26;80.52
49827;BME280;35715;51.570;6.036;2024-02-28T12:17:25;102041.56;;;10.19;81.07
49827;BME280;35715;51.570;6.036;2024-02-28T12:19:51;102052.91;;;10.21;81.15
49827;BME280;35715;51.570;6.036;2024-02-28T12:22:16;102043.63;;;10.23;81.77
49827;BME280;35715;51.570;6.036;2024-02-28T12:24:41;102049.00;;;10.06;81.88
49827;BME280;35715;51.570;6.036;2024-02-28T12:27:07;102047.16;;;10.05;82.29
49827;BME280;35715;51.570;6.036;2024-02-28T12:29:32;102050.34;;;9.92;82.71
49827;BME280;35715;51.570;6.036;2024-02-28T12:31:58;102038.81;;;9.88;82.91
49827;BME280;35715;51.570;6.036;2024-02-28T12:34:23;102036.78;;;9.84;82.65
49827;BME280;35715;51.570;6.036;2024-02-28T12:36:48;102028.28;;;9.66;82.26
49827;BME280;35715;51.570;6.036;2024-02-28T12:39:14;102036.09;;;9.76;82.88
49827;BME280;35715;51.570;6.036;2024-02-28T12:41:39;102030.81;;;9.85;83.34
49827;BME280;35715;51.570;6.036;2024-02-28T12:44:06;102018.03;;;9.76;82.93
49827;BME280;35715;51.570;6.036;2024-02-28T12:46:34;102007.22;;;9.81;83.65